Time;durP1;ratioP1;P1;durP2;ratioP2;P2;SDS_P1;SDS_P2;PMS_P1;PMS_P2;Temp;Humidity;BMP_temperature;BMP_pressure;BME280_temperature;BME280_humidity;BME280_pressure;Samples;Min_cycle;Max_cycle;Signal;HPM_P1;HPM_P2
2020/12/23 00:00:04;;;;;;;;;;;;;;;-2.72;87.91;100197.03;3494444;28;19924;-40
2020/12/23 00:01:45;;;;;;;;;;;;;;;-2.71;87.99;100198.78;3493454;28;20277;-39
2020/12/23 00:03:27;;;;;;;;;;;;;;;-2.71;87.82;100198.78;3496132;28;19925;-57
2020/12/23 00:05:10;;;;;;;;;;;;;;;-2.71;87.81;100201.34;3493637;28;19968;-40
2020/12/23 00:06:52;;;;;;;;;;;;;;;-2.70;87.62;100204.78;3493059;28;20381;-41
2020/12/23 00:08:33;;;;;;;;;;;;;;;-2.69;87.55;100201.44;3495614;28;19997;-57
2020/12/23 00:10:15;;;;;;;;;;;;;;;-2.70;87.86;100199.69;3493484;28;19924;-57
2020/12/23 00:11:56;;;;;;;;;;;;;;;-2.69;87.62;100198.91;3489817;28;20289;-41
2020/12/23 00:13:37;;;;;;;;;;;;;;;-2.71;87.52;100192.84;3495438;28;19936;-41
2020/12/23 00:15:19;;;;;;;;;;;;;;;-2.71;87.70;100193.72;3492580;28;19970;-40
2020/12/23 00:17:00;;;;;;;;;;;;;;;-2.70;87.70;100194.63;3495397;28;19928;-40
2020/12/23 00:18:42;;;;;;;;;;;;;;;-2.70;87.27;100199.69;3494258;28;20013;-39
2020/12/23 00:20:24;;;;;;;;;;;;;;;-2.70;87.49;100202.25;3493123;28;19971;-40
2020/12/23 00:22:05;;;;;;;;;;;;;;;-2.71;87.39;100178.47;3495573;28;19967;-39
2020/12/23 00:23:46;;;;;;;;;;;;;;;-2.72;87.14;100184.34;3493339;28;20218;-57
2020/12/23 00:25:27;;;;;;;;;;;;;;;-2.73;87.07;100191.84;3493989;28;19924;-56
2020/12/23 00:27:08;;;;;;;;;;;;;;;-2.74;87.18;100179.91;3491971;28;19983;-56
2020/12/23 00:28:50;;;;;;;;;;;;;;;-2.74;87.26;100183.34;3493175;28;20436;-57
2020/12/23 00:30:31;;;;;;;;;;;;;;;-2.75;87.28;100184.13;3495606;28;19937;-57
2020/12/23 00:32:12;;;;;;;;;;;;;;;-2.75;87.18;100171.41;3493353;28;19924;-57
2020/12/23 00:33:54;;;;;;;;;;;;;;;-2.75;87.17;100171.41;3490349;28;20432;-57
2020/12/23 00:35:36;;;;;;;;;;;;;;;-2.76;86.76;100177.25;3495041;28;19924;-57
2020/12/23 00:37:17;;;;;;;;;;;;;;;-2.76;87.11;100166.22;3493108;28;19931;-40
2020/12/23 00:38:59;;;;;;;;;;;;;;;-2.76;86.76;100178.91;3493500;28;19971;-40
2020/12/23 00:40:40;;;;;;;;;;;;;;;-2.79;86.42;100155.84;3495155;28;19959;-40
2020/12/23 00:42:21;;;;;;;;;;;;;;;-2.81;86.19;100153.22;3492328;28;19986;-57
2020/12/23 00:44:03;;;;;;;;;;;;;;;-2.82;86.26;100157.38;3495054;28;19924;-56
2020/12/23 00:45:44;;;;;;;;;;;;;;;-2.83;86.46;100150.56;3492787;28;19925;-57
2020/12/23 00:47:25;;;;;;;;;;;;;;;-2.83;86.33;100150.56;3490608;28;20419;-57
2020/12/23 00:49:07;;;;;;;;;;;;;;;-2.83;86.50;100159.78;3492347;28;19959;-40
2020/12/23 00:50:49;;;;;;;;;;;;;;;-2.84;86.76;100152.97;3492345;28;19975;-39
2020/12/23 00:52:30;;;;;;;;;;;;;;;-2.84;86.93;100140.28;3491229;28;19968;-57
2020/12/23 00:54:11;;;;;;;;;;;;;;;-2.83;86.70;100136.94;3494185;28;19959;-57
2020/12/23 00:55:53;;;;;;;;;;;;;;;-2.82;86.75;100134.53;3492175;28;19959;-40
2020/12/23 00:57:34;;;;;;;;;;;;;;;-2.82;86.86;100126.03;3496228;28;20416;-57
2020/12/23 00:59:15;;;;;;;;;;;;;;;-2.79;86.91;100122.81;3495815;28;19925;-58
2020/12/23 01:00:57;;;;;;;;;;;;;;;-2.78;86.75;100127.16;3492609;28;19935;-57
2020/12/23 01:02:38;;;;;;;;;;;;;;;-2.77;86.90;100119.66;3497780;28;19928;-40
2020/12/23 01:04:19;;;;;;;;;;;;;;;-2.76;86.98;100117.97;3495584;28;19973;-57
2020/12/23 01:06:05;;;;;;;;;;;;;;;-2.75;86.80;100118.09;3494467;28;19960;-57
2020/12/23 01:07:46;;;;;;;;;;;;;;;-2.73;87.05;100115.69;3497241;28;19978;-40
2020/12/23 01:09:27;;;;;;;;;;;;;;;-2.71;86.89;100117.53;3495825;28;20431;-57
2020/12/23 01:11:09;;;;;;;;;;;;;;;-2.69;87.02;100115.13;3496279;28;20300;-41
2020/12/23 01:12:51;;;;;;;;;;;;;;;-2.67;86.79;100114.47;3496151;28;20435;-41
2020/12/23 01:14:32;;;;;;;;;;;;;;;-2.66;86.69;100108.59;3494749;28;19932;-41
2020/12/23 01:16:19;;;;;;;;;;;;;;;-2.65;86.65;100105.31;3497338;28;20412;-40
2020/12/23 01:18:00;;;;;;;;;;;;;;;-2.64;86.67;100098.56;3494210;28;20071;-40
2020/12/23 01:19:41;;;;;;;;;;;;;;;-2.66;86.93;100101.00;3495292;28;20309;-57
2020/12/23 01:21:23;;;;;;;;;;;;;;;-2.64;86.79;100088.41;3497361;28;20010;-40
2020/12/23 01:23:04;;;;;;;;;;;;;;;-2.65;87.13;100096.81;3495102;28;19924;-57
2020/12/23 01:24:45;;;;;;;;;;;;;;;-2.63;87.02;100095.28;3496702;28;19967;-57
2020/12/23 01:26:26;;;;;;;;;;;;;;;-2.63;87.04;100086.00;3496396;28;19924;-57
2020/12/23 01:28:07;;;;;;;;;;;;;;;-2.63;87.13;100085.13;3494967;28;20015;-41
2020/12/23 01:29:48;;;;;;;;;;;;;;;-2.63;87.27;100087.66;3497477;28;20447;-57
2020/12/23 01:31:30;;;;;;;;;;;;;;;-2.63;87.17;100085.13;3493548;28;19924;-57
2020/12/23 01:33:17;;;;;;;;;;;;;;;-2.64;87.24;100079.13;3492586;28;19928;-41
2020/12/23 01:34:58;;;;;;;;;;;;;;;-2.64;87.37;100086.75;3497049;28;19924;-42
2020/12/23 01:36:40;;;;;;;;;;;;;;;-2.62;87.25;100076.69;3494022;28;19974;-40
2020/12/23 01:38:21;;;;;;;;;;;;;;;-2.61;87.33;100070.88;3495170;28;20304;-57
2020/12/23 01:40:03;;;;;;;;;;;;;;;-2.60;87.37;100059.03;3496100;28;20011;-40
2020/12/23 01:41:44;;;;;;;;;;;;;;;-2.60;87.25;100062.47;3495884;28;19931;-42
2020/12/23 01:43:25;;;;;;;;;;;;;;;-2.59;87.17;100061.69;3495686;28;19924;-52
2020/12/23 01:45:07;;;;;;;;;;;;;;;-2.58;87.50;100060.94;3494971;28;20295;-57
2020/12/23 01:46:49;;;;;;;;;;;;;;;-2.57;87.31;100056.72;3495117;28;20915;-57
2020/12/23 01:48:31;;;;;;;;;;;;;;;-2.57;87.29;100047.44;3497346;28;20258;-57
2020/12/23 01:50:12;;;;;;;;;;;;;;;-2.55;87.43;100050.09;3494735;28;20411;-57
2020/12/23 01:51:55;;;;;;;;;;;;;;;-2.55;87.53;100050.97;3494008;28;20047;-57
2020/12/23 01:53:37;;;;;;;;;;;;;;;-2.53;87.45;100051.09;3497336;28;20006;-41
2020/12/23 01:55:18;;;;;;;;;;;;;;;-2.52;87.54;100041.03;3493504;28;19925;-57
2020/12/23 01:57:00;;;;;;;;;;;;;;;-2.51;87.52;100041.91;3496376;28;19975;-40
2020/12/23 01:58:41;;;;;;;;;;;;;;;-2.50;87.28;100036.06;3494232;28;20416;-41
2020/12/23 02:00:22;;;;;;;;;;;;;;;-2.49;87.54;100032.78;3494217;28;19990;-57
2020/12/23 02:02:16;;;;;;;;;;;;;;;-2.50;87.41;100033.53;3496813;28;19928;-57
2020/12/23 02:03:58;;;;;;;;;;;;;;;-2.49;87.34;100026.03;3493241;28;20425;-57
2020/12/23 02:05:40;;;;;;;;;;;;;;;-2.47;87.52;100028.69;3493583;28;19979;-40
2020/12/23 02:07:24;;;;;;;;;;;;;;;-2.48;87.47;100020.16;3496999;28;19982;-57
2020/12/23 02:09:05;;;;;;;;;;;;;;;-2.48;87.48;100016.75;3494597;28;20333;-57
2020/12/23 02:10:48;;;;;;;;;;;;;;;-2.47;87.65;100011.78;3493406;28;20434;-57
2020/12/23 02:12:30;;;;;;;;;;;;;;;-2.47;87.44;100014.31;3496393;28;19959;-57
2020/12/23 02:14:11;;;;;;;;;;;;;;;-2.47;87.68;100008.34;3493427;28;19975;-57
2020/12/23 02:15:52;;;;;;;;;;;;;;;-2.45;87.60;100011.88;3496772;28;19956;-41
2020/12/23 02:17:33;;;;;;;;;;;;;;;-2.46;87.53;100016.09;3493725;28;19928;-56
2020/12/23 02:19:14;;;;;;;;;;;;;;;-2.46;87.47;100005.94;3494526;28;20485;-57
2020/12/23 02:20:56;;;;;;;;;;;;;;;-2.45;87.32;100004.28;3496966;28;19924;-57
2020/12/23 02:22:38;;;;;;;;;;;;;;;-2.46;87.58;100000.84;3493104;28;19975;-57
2020/12/23 02:24:19;;;;;;;;;;;;;;;-2.45;87.35;100001.72;3494465;28;20435;-57
2020/12/23 02:26:00;;;;;;;;;;;;;;;-2.45;87.37;99989.03;3496631;28;19964;-57
2020/12/23 02:27:42;;;;;;;;;;;;;;;-2.44;87.43;99993.34;3493881;28;19928;-56
2020/12/23 02:29:23;;;;;;;;;;;;;;;-2.45;87.43;99991.56;3496291;28;19924;-57
2020/12/23 02:31:05;;;;;;;;;;;;;;;-2.43;87.29;99990.88;3493815;28;20412;-57
2020/12/23 02:32:46;;;;;;;;;;;;;;;-2.42;87.43;99984.16;3494383;28;20388;-57
2020/12/23 02:34:27;;;;;;;;;;;;;;;-2.42;87.46;99999.41;3496990;28;19967;-57
2020/12/23 02:36:08;;;;;;;;;;;;;;;-2.40;87.52;99989.38;3494300;28;20042;-57
2020/12/23 02:37:50;;;;;;;;;;;;;;;-2.40;87.54;99979.19;3493226;28;20267;-56
2020/12/23 02:39:31;;;;;;;;;;;;;;;-2.40;87.23;99975.00;3496700;28;19967;-41
2020/12/23 02:41:13;;;;;;;;;;;;;;;-2.39;87.27;99970.78;3494467;28;20270;-57
2020/12/23 02:42:54;;;;;;;;;;;;;;;-2.38;87.38;99981.06;3494738;28;20037;-58
2020/12/23 02:44:35;;;;;;;;;;;;;;;-2.37;87.07;99976.84;3494803;28;19924;-41
2020/12/23 02:46:16;;;;;;;;;;;;;;;-2.36;87.23;99976.97;3493198;28;19930;-41
2020/12/23 02:47:57;;;;;;;;;;;;;;;-2.36;87.21;99984.59;3496460;28;19967;-41
2020/12/23 02:49:38;;;;;;;;;;;;;;;-2.34;86.94;99982.16;3493087;28;19931;-41
2020/12/23 02:51:19;;;;;;;;;;;;;;;-2.34;87.16;99975.41;3494503;28;20057;-41
2020/12/23 02:53:01;;;;;;;;;;;;;;;-2.34;86.90;99975.41;3496374;28;20425;-40
2020/12/23 02:54:42;;;;;;;;;;;;;;;-2.34;87.18;99962.69;3492866;28;20408;-41
2020/12/23 02:56:24;;;;;;;;;;;;;;;-2.31;87.05;99969.66;3495961;28;20357;-57
2020/12/23 02:58:05;;;;;;;;;;;;;;;-2.32;87.00;99965.34;3494568;28;19924;-41
2020/12/23 02:59:46;;;;;;;;;;;;;;;-2.30;86.84;99967.25;3494325;28;19974;-40
2020/12/23 03:01:27;;;;;;;;;;;;;;;-2.31;86.76;99969.66;3496762;28;19924;-57
2020/12/23 03:03:08;;;;;;;;;;;;;;;-2.30;86.89;99977.41;3494116;28;20398;-57
2020/12/23 03:04:50;;;;;;;;;;;;;;;-2.30;86.90;99969.78;3494139;28;20398;-57
2020/12/23 03:06:31;;;;;;;;;;;;;;;-2.29;87.07;99963.03;3496426;28;19928;-57
2020/12/23 03:08:13;;;;;;;;;;;;;;;-2.28;87.06;99965.69;3494164;28;19925;-41
2020/12/23 03:09:54;;;;;;;;;;;;;;;-2.29;86.74;99961.38;3495747;28;19928;-57
2020/12/23 03:11:36;;;;;;;;;;;;;;;-2.27;86.87;99962.34;3494593;28;20285;-57
2020/12/23 03:13:17;;;;;;;;;;;;;;;-2.27;86.80;99953.84;3493940;28;19932;-57
2020/12/23 03:14:58;;;;;;;;;;;;;;;-2.26;86.66;99963.25;3496393;28;19960;-56
2020/12/23 03:16:39;;;;;;;;;;;;;;;-2.26;86.61;99953.09;3494016;28;19970;-41
2020/12/23 03:18:21;;;;;;;;;;;;;;;-2.26;86.87;99960.72;3492813;28;19928;-41
2020/12/23 03:20:02;;;;;;;;;;;;;;;-2.27;86.79;99944.56;3495417;28;19999;-41
2020/12/23 03:21:44;;;;;;;;;;;;;;;-2.26;86.68;99953.09;3494040;28;19924;-41
2020/12/23 03:23:25;;;;;;;;;;;;;;;-2.26;86.81;99948.88;3492563;28;19960;-41
2020/12/23 03:25:07;;;;;;;;;;;;;;;-2.27;86.87;99947.09;3494520;28;20110;-57
2020/12/23 03:26:48;;;;;;;;;;;;;;;-2.26;87.07;99943.81;3493764;28;19966;-57
2020/12/23 03:28:29;;;;;;;;;;;;;;;-2.24;86.63;99952.41;3496447;28;19924;-57
2020/12/23 03:30:10;;;;;;;;;;;;;;;-2.25;86.86;99945.56;3492421;28;19931;-41
2020/12/23 03:31:51;;;;;;;;;;;;;;;-2.25;86.78;99948.13;3493939;28;19967;-41
2020/12/23 03:33:32;;;;;;;;;;;;;;;-2.25;86.75;99948.13;3496060;28;19986;-57
2020/12/23 03:35:14;;;;;;;;;;;;;;;-2.25;86.81;99940.50;3494106;28;20538;-41
2020/12/23 03:36:55;;;;;;;;;;;;;;;-2.24;86.79;99941.38;3495429;28;19924;-40
2020/12/23 03:38:37;;;;;;;;;;;;;;;-2.24;87.03;99933.75;3494342;28;19931;-41
2020/12/23 03:40:18;;;;;;;;;;;;;;;-2.24;86.89;99944.78;3493866;28;20013;-41
2020/12/23 03:41:59;;;;;;;;;;;;;;;-2.24;87.07;99942.25;3494646;28;20013;-40
2020/12/23 03:43:40;;;;;;;;;;;;;;;-2.23;87.12;99935.50;3493615;28;20013;-41
2020/12/23 03:45:21;;;;;;;;;;;;;;;-2.23;86.94;99938.03;3494076;28;19956;-41
2020/12/23 03:47:03;;;;;;;;;;;;;;;-2.24;86.94;99947.31;3495778;28;19972;-41
2020/12/23 03:48:44;;;;;;;;;;;;;;;-2.21;86.97;99940.69;3492476;28;19974;-41
2020/12/23 03:50:25;;;;;;;;;;;;;;;-2.21;87.16;99936.50;3495388;28;19928;-40
2020/12/23 03:52:06;;;;;;;;;;;;;;;-2.20;87.16;99935.72;3494255;28;20266;-41
2020/12/23 03:53:48;;;;;;;;;;;;;;;-2.19;87.28;99940.03;3492718;28;19931;-40
2020/12/23 03:55:29;;;;;;;;;;;;;;;-2.19;87.00;99932.41;3496057;28;19994;-41
2020/12/23 03:57:10;;;;;;;;;;;;;;;-2.19;86.80;99924.78;3493289;28;19924;-41
2020/12/23 03:58:52;;;;;;;;;;;;;;;-2.18;86.92;99934.16;3493448;28;20312;-40
2020/12/23 04:00:33;;;;;;;;;;;;;;;-2.19;86.87;99927.31;3495740;28;19924;-41
2020/12/23 04:02:14;;;;;;;;;;;;;;;-2.19;87.05;99932.41;3492253;28;20030;-41
2020/12/23 04:03:55;;;;;;;;;;;;;;;-2.19;86.72;99926.41;3495186;28;20335;-57
2020/12/23 04:05:37;;;;;;;;;;;;;;;-2.18;86.84;99935.81;3493850;28;19971;-57
2020/12/23 04:07:18;;;;;;;;;;;;;;;-2.19;86.92;99917.16;3493573;28;19924;-57
2020/12/23 04:09:00;;;;;;;;;;;;;;;-2.18;86.87;99928.19;3495843;28;20293;-57
2020/12/23 04:10:41;;;;;;;;;;;;;;;-2.18;87.07;99918.91;3493554;28;19928;-57
2020/12/23 04:12:22;;;;;;;;;;;;;;;-2.17;86.85;99917.25;3492147;28;19925;-58
2020/12/23 04:14:05;;;;;;;;;;;;;;;-2.17;86.87;99919.81;3495705;28;19925;-57
2020/12/23 04:15:46;;;;;;;;;;;;;;;-2.17;86.80;99919.81;3493284;28;19924;-55
2020/12/23 04:17:27;;;;;;;;;;;;;;;-2.17;86.67;99917.25;3494417;28;20266;-57
2020/12/23 04:19:09;;;;;;;;;;;;;;;-2.18;86.53;99908.75;3493486;28;19924;-58
2020/12/23 04:20:50;;;;;;;;;;;;;;;-2.18;86.56;99898.56;3491706;28;20014;-57
2020/12/23 04:22:32;;;;;;;;;;;;;;;-2.18;86.74;99906.19;3495759;28;19929;-57
2020/12/23 04:24:14;;;;;;;;;;;;;;;-2.17;86.64;99907.97;3493304;28;20331;-57
2020/12/23 04:25:55;;;;;;;;;;;;;;;-2.16;86.90;99898.69;3493239;28;20339;-57
2020/12/23 04:27:36;;;;;;;;;;;;;;;-2.15;86.67;99913.16;3495438;28;19931;-57
2020/12/23 04:29:18;;;;;;;;;;;;;;;-2.16;86.49;99909.75;3494452;28;19925;-57
2020/12/23 04:30:59;;;;;;;;;;;;;;;-2.17;86.81;99910.50;3493954;28;19924;-57
2020/12/23 04:32:40;;;;;;;;;;;;;;;-2.15;86.79;99931.81;3494907;28;20373;-40
2020/12/23 04:34:21;;;;;;;;;;;;;;;-2.15;86.46;99913.16;3494357;28;20365;-41
2020/12/23 04:36:03;;;;;;;;;;;;;;;-2.15;86.50;99923.31;3497522;28;20392;-41
2020/12/23 04:37:44;;;;;;;;;;;;;;;-2.17;86.47;99913.06;3495471;28;19924;-41
2020/12/23 04:39:26;;;;;;;;;;;;;;;-2.16;86.81;99921.56;3494366;28;19939;-57
2020/12/23 04:41:07;;;;;;;;;;;;;;;-2.17;86.60;99910.50;3497702;28;19931;-57
2020/12/23 04:42:49;;;;;;;;;;;;;;;-2.17;86.58;99910.50;3494173;28;19924;-57
2020/12/23 04:44:30;;;;;;;;;;;;;;;-2.16;86.65;99916.47;3496247;28;20362;-58
2020/12/23 04:46:14;;;;;;;;;;;;;;;-2.15;86.75;99919.13;3495849;28;20354;-57
2020/12/23 04:47:56;;;;;;;;;;;;;;;-2.14;86.67;99909.81;3495138;28;19931;-41
2020/12/23 04:49:38;;;;;;;;;;;;;;;-2.14;86.59;99910.72;3498006;28;19924;-57
2020/12/23 04:51:21;;;;;;;;;;;;;;;-2.13;86.64;99917.56;3494159;28;19924;-57
2020/12/23 04:53:03;;;;;;;;;;;;;;;-2.12;86.59;99905.75;3495236;28;19925;-55
2020/12/23 04:54:44;;;;;;;;;;;;;;;-2.11;86.53;99913.44;3497613;28;20322;-40
2020/12/23 04:56:26;;;;;;;;;;;;;;;-2.10;86.47;99912.69;3495825;28;19924;-41
2020/12/23 04:58:08;;;;;;;;;;;;;;;-2.10;86.57;99909.28;3496162;28;19956;-57
2020/12/23 04:59:50;;;;;;;;;;;;;;;-2.10;86.69;99910.16;3496904;28;19924;-57
2020/12/23 05:01:31;;;;;;;;;;;;;;;-2.10;86.63;99899.97;3495441;28;19928;-57
2020/12/23 05:03:12;;;;;;;;;;;;;;;-2.11;86.98;99903.28;3497683;28;20280;-57
2020/12/23 05:04:54;;;;;;;;;;;;;;;-2.12;86.88;99906.63;3494331;28;19924;-57
2020/12/23 05:06:36;;;;;;;;;;;;;;;-2.11;86.78;99903.28;3493915;28;19924;-41
2020/12/23 05:08:17;;;;;;;;;;;;;;;-2.10;86.86;99916.91;3497363;28;20443;-57
2020/12/23 05:10:00;;;;;;;;;;;;;;;-2.10;87.05;99901.66;3495408;28;19925;-57
2020/12/23 05:11:41;;;;;;;;;;;;;;;-2.11;87.05;99895.66;3495712;28;19928;-57
2020/12/23 05:13:23;;;;;;;;;;;;;;;-2.10;86.88;99902.53;3497266;28;20391;-57
2020/12/23 05:15:04;;;;;;;;;;;;;;;-2.10;86.83;99905.06;3495209;28;19967;-57
2020/12/23 05:16:45;;;;;;;;;;;;;;;-2.10;86.79;99904.19;3497330;28;20007;-57
2020/12/23 05:18:30;;;;;;;;;;;;;;;-2.10;86.85;99902.53;3495266;28;19924;-41
2020/12/23 05:20:12;;;;;;;;;;;;;;;-2.11;86.83;99903.28;3495742;28;19971;-41
2020/12/23 05:21:53;;;;;;;;;;;;;;;-2.12;86.85;99906.63;3497320;28;19924;-56
2020/12/23 05:23:38;;;;;;;;;;;;;;;-2.11;86.83;99894.78;3495956;28;20114;-57
2020/12/23 05:25:20;;;;;;;;;;;;;;;-2.11;86.93;99902.41;3495556;28;19925;-57
2020/12/23 05:27:03;;;;;;;;;;;;;;;-2.13;87.08;99894.69;3497318;28;19928;-57
2020/12/23 05:28:45;;;;;;;;;;;;;;;-2.11;86.82;99899.88;3495378;28;19975;-57
2020/12/23 05:30:27;;;;;;;;;;;;;;;-2.11;86.82;99894.78;3496633;28;19963;-57
2020/12/23 05:32:10;;;;;;;;;;;;;;;-2.10;86.88;99896.56;3495792;28;20423;-56
2020/12/23 05:33:51;;;;;;;;;;;;;;;-2.09;87.07;99889.06;3495288;28;19928;-57
2020/12/23 05:35:48;;;;;;;;;;;;;;;-2.09;87.14;99888.16;3496976;28;20015;-41
2020/12/23 05:37:30;;;;;;;;;;;;;;;-2.09;87.14;99886.50;3495228;28;20015;-40
2020/12/23 05:39:11;;;;;;;;;;;;;;;-2.07;86.94;99889.13;3494715;28;20357;-41
2020/12/23 05:40:53;;;;;;;;;;;;;;;-2.08;86.94;99879.75;3497291;28;20007;-40
2020/12/23 05:42:36;;;;;;;;;;;;;;;-2.07;87.07;99886.59;3491683;28;19963;-57
2020/12/23 05:44:18;;;;;;;;;;;;;;;-2.07;87.07;99886.59;3493960;28;19952;-40
2020/12/23 05:46:00;;;;;;;;;;;;;;;-2.07;86.99;99884.03;3497372;28;20396;-41
2020/12/23 05:47:41;;;;;;;;;;;;;;;-2.07;87.21;99890.03;3495217;28;20631;-57
2020/12/23 05:49:24;;;;;;;;;;;;;;;-2.05;87.31;99882.50;3496322;28;19931;-57
2020/12/23 05:51:05;;;;;;;;;;;;;;;-2.05;87.05;99893.56;3496340;28;19964;-57
2020/12/23 05:52:47;;;;;;;;;;;;;;;-2.05;87.35;99901.19;3494952;28;20337;-57
2020/12/23 05:54:30;;;;;;;;;;;;;;;-2.05;87.21;99877.44;3497284;28;20402;-57
2020/12/23 05:56:12;;;;;;;;;;;;;;;-2.05;87.46;99880.84;3493102;28;19971;-57
2020/12/23 05:57:53;;;;;;;;;;;;;;;-2.03;87.15;99873.31;3493248;28;19966;-57
2020/12/23 05:59:34;;;;;;;;;;;;;;;-2.03;87.32;99877.53;3496221;28;20417;-57
2020/12/23 06:01:20;;;;;;;;;;;;;;;-2.05;87.35;99868.13;3494054;28;19994;-57
2020/12/23 06:03:04;;;;;;;;;;;;;;;-2.03;87.66;99875.88;3495276;28;19978;-57
2020/12/23 06:04:45;;;;;;;;;;;;;;;-2.03;87.33;99868.25;3496816;28;19975;-57
2020/12/23 06:06:27;;;;;;;;;;;;;;;-2.03;87.64;99868.25;3493494;28;19926;-57
2020/12/23 06:08:09;;;;;;;;;;;;;;;-2.02;87.79;99871.66;3495618;28;19924;-57
2020/12/23 06:09:57;;;;;;;;;;;;;;;-2.02;87.54;99875.06;3495063;28;19952;-57
2020/12/23 06:11:40;;;;;;;;;;;;;;;-2.01;87.70;99865.81;3494380;28;19959;-57
2020/12/23 06:13:32;;;;;;;;;;;;;;;-2.00;87.62;99862.47;3483947;28;19940;-57
2020/12/23 06:15:16;;;;;;;;;;;;;;;-1.99;87.62;99861.69;3495245;28;19971;-57
2020/12/23 06:17:03;;;;;;;;;;;;;;;-2.00;87.84;99859.91;3495376;28;19935;-57
2020/12/23 06:18:45;;;;;;;;;;;;;;;-2.00;87.69;99857.38;3496920;28;19924;-41
2020/12/23 06:20:29;;;;;;;;;;;;;;;-2.00;88.04;99863.38;3493226;28;20388;-41
2020/12/23 06:22:10;;;;;;;;;;;;;;;-1.99;88.19;99854.94;3495001;28;19978;-41
2020/12/23 06:23:59;;;;;;;;;;;;;;;-1.98;88.17;99859.25;3495396;28;19935;-41
2020/12/23 06:25:46;;;;;;;;;;;;;;;-1.98;87.98;99856.72;3489096;28;20386;-41
2020/12/23 06:27:31;;;;;;;;;;;;;;;-1.98;88.01;99859.25;3493895;28;19932;-40
2020/12/23 06:29:14;;;;;;;;;;;;;;;-1.95;87.92;99868.72;3496161;28;19970;-40
2020/12/23 06:30:56;;;;;;;;;;;;;;;-1.95;88.04;99854.34;3492839;28;19978;-41
2020/12/23 06:32:37;;;;;;;;;;;;;;;-1.94;88.21;99851.06;3493526;28;19956;-57
2020/12/23 06:34:20;;;;;;;;;;;;;;;-1.92;87.92;99848.59;3495384;28;19982;-57
2020/12/23 06:36:10;;;;;;;;;;;;;;;-1.91;88.30;99852.91;3494277;28;19931;-41
2020/12/23 06:37:51;;;;;;;;;;;;;;;-1.92;88.02;99828.28;3496287;28;20388;-41
2020/12/23 06:39:32;;;;;;;;;;;;;;;-1.92;88.33;99826.59;3495438;28;19935;-56
2020/12/23 06:41:21;;;;;;;;;;;;;;;-1.92;88.56;99826.59;3494957;28;19970;-56
2020/12/23 06:43:03;;;;;;;;;;;;;;;-1.91;88.35;99825.84;3495586;28;19978;-41
2020/12/23 06:45:09;;;;;;;;;;;;;;;-1.91;88.62;99823.28;3493239;28;19963;-40
2020/12/23 06:47:07;;;;;;;;;;;;;;;-1.90;88.73;99827.56;3475185;28;19928;-40
2020/12/23 06:48:49;;;;;;;;;;;;;;;-1.88;88.90;99826.03;3494313;28;19989;-41
2020/12/23 06:50:31;;;;;;;;;;;;;;;-1.86;88.46;99836.28;3496326;28;19924;-41
2020/12/23 06:52:27;;;;;;;;;;;;;;;-1.85;88.50;99838.06;3494287;28;19931;-40
2020/12/23 06:54:09;;;;;;;;;;;;;;;-1.84;88.95;99838.94;3495166;28;20015;-41
2020/12/23 06:55:50;;;;;;;;;;;;;;;-1.84;88.73;99852.56;3495002;28;19976;-41
2020/12/23 06:57:50;;;;;;;;;;;;;;;-1.84;88.85;99839.84;3492717;28;20451;-41
2020/12/23 06:59:47;;;;;;;;;;;;;;;-1.83;88.79;99841.56;3490346;28;19958;-40
2020/12/23 07:01:36;;;;;;;;;;;;;;;-1.82;88.92;99839.91;3496241;28;19967;-40
2020/12/23 07:03:17;;;;;;;;;;;;;;;-1.82;88.83;99840.81;3491449;28;20388;-41
2020/12/23 07:04:58;;;;;;;;;;;;;;;-1.83;88.93;99839.03;3494955;28;19970;-41
2020/12/23 07:06:51;;;;;;;;;;;;;;;-1.83;88.78;99844.13;3490594;28;19936;-57
2020/12/23 07:08:34;;;;;;;;;;;;;;;-1.84;88.93;99856.72;3488596;28;19929;-41
2020/12/23 07:10:16;;;;;;;;;;;;;;;-1.83;89.00;99849.22;3493369;28;19979;-40
2020/12/23 07:11:57;;;;;;;;;;;;;;;-1.83;89.22;99863.59;3494226;28;20326;-41
2020/12/23 07:13:39;;;;;;;;;;;;;;;-1.84;89.22;99859.28;3494570;28;19928;-41
2020/12/23 07:15:22;;;;;;;;;;;;;;;-1.85;89.41;99850.78;3495304;28;20311;-40
2020/12/23 07:17:03;;;;;;;;;;;;;;;-1.84;89.36;99844.03;3494430;28;19931;-40
2020/12/23 07:18:45;;;;;;;;;;;;;;;-1.84;89.48;99854.19;3492798;28;19924;-40
2020/12/23 07:20:26;;;;;;;;;;;;;;;-1.83;89.34;99853.41;3494560;28;19967;-57
2020/12/23 07:22:08;;;;;;;;;;;;;;;-1.82;89.37;99856.06;3494393;28;19975;-57
2020/12/23 07:23:49;;;;;;;;;;;;;;;-1.81;89.41;99855.25;3495264;28;19929;-57
2020/12/23 07:25:34;;;;;;;;;;;;;;;-1.81;89.45;99850.19;3494578;28;19985;-57
2020/12/23 07:27:16;;;;;;;;;;;;;;;-1.79;89.59;99837.56;3493581;28;19960;-57
2020/12/23 07:29:07;;;;;;;;;;;;;;;-1.78;89.44;99835.13;3495069;28;20369;-57
2020/12/23 07:30:49;;;;;;;;;;;;;;;-1.78;89.31;99837.69;3492447;28;19970;-57
2020/12/23 07:32:30;;;;;;;;;;;;;;;-1.78;89.49;99836.81;3492857;28;20385;-57
2020/12/23 07:34:12;;;;;;;;;;;;;;;-1.78;89.64;99837.69;3495398;28;19997;-57
2020/12/23 07:35:54;;;;;;;;;;;;;;;-1.78;89.50;99836.81;3492364;28;20400;-57
2020/12/23 07:37:38;;;;;;;;;;;;;;;-1.78;89.71;99841.91;3491804;28;20018;-57
2020/12/23 07:39:19;;;;;;;;;;;;;;;-1.79;89.58;99830.81;3493294;28;19947;-57
2020/12/23 07:41:01;;;;;;;;;;;;;;;-1.78;89.69;99836.81;3493357;28;19967;-57
2020/12/23 07:42:46;;;;;;;;;;;;;;;-1.79;89.75;99835.91;3492209;28;20006;-57
2020/12/23 07:44:28;;;;;;;;;;;;;;;-1.78;89.66;99834.25;3493215;28;19959;-57
2020/12/23 07:46:10;;;;;;;;;;;;;;;-1.77;89.73;99830.91;3491823;28;19924;-55
2020/12/23 07:47:55;;;;;;;;;;;;;;;-1.77;89.95;99821.66;3495708;28;20022;-57
2020/12/23 07:49:36;;;;;;;;;;;;;;;-1.78;90.27;99827.50;3492987;28;19970;-57
2020/12/23 07:51:17;;;;;;;;;;;;;;;-1.76;90.43;99830.16;3492125;28;19924;-58
2020/12/23 07:53:10;;;;;;;;;;;;;;;-1.76;90.26;99833.56;3494930;28;19924;-57
2020/12/23 07:54:51;;;;;;;;;;;;;;;-1.75;90.41;99815.00;3491267;28;20415;-57
2020/12/23 07:56:37;;;;;;;;;;;;;;;-1.77;90.44;99824.19;3494522;28;19924;-56
2020/12/23 07:58:19;;;;;;;;;;;;;;;-1.77;90.54;99815.66;3495673;28;19986;-57
2020/12/23 08:00:00;;;;;;;;;;;;;;;-1.79;90.64;99818.09;3492354;28;19924;-57
2020/12/23 08:01:42;;;;;;;;;;;;;;;-1.79;90.85;99820.66;3489926;28;20009;-57
2020/12/23 08:03:24;;;;;;;;;;;;;;;-1.79;91.07;99815.56;3495504;28;20316;-57
2020/12/23 08:05:06;;;;;;;;;;;;;;;-1.79;91.16;99810.47;3492225;28;19928;-57
2020/12/23 08:06:47;;;;;;;;;;;;;;;-1.78;91.22;99822.41;3497864;28;19951;-57
2020/12/23 08:08:28;;;;;;;;;;;;;;;-1.76;91.55;99815.78;3494106;28;20458;-57
2020/12/23 08:10:10;;;;;;;;;;;;;;;-1.76;91.70;99808.13;3493822;28;19986;-57
2020/12/23 08:11:52;;;;;;;;;;;;;;;-1.76;91.29;99808.13;3486296;28;19924;-58
2020/12/23 08:13:33;;;;;;;;;;;;;;;-1.76;91.42;99803.06;3496606;28;19928;-57
2020/12/23 08:15:15;;;;;;;;;;;;;;;-1.75;91.22;99807.38;3495654;28;20410;-57
2020/12/23 08:16:58;;;;;;;;;;;;;;;-1.73;91.29;99800.72;3497996;28;20361;-57
2020/12/23 08:18:39;;;;;;;;;;;;;;;-1.72;91.47;99807.56;3494224;28;20022;-57
2020/12/23 08:20:21;;;;;;;;;;;;;;;-1.73;91.17;99800.72;3497908;28;20398;-57
2020/12/23 08:22:09;;;;;;;;;;;;;;;-1.71;91.13;99804.22;3496136;28;19975;-55
2020/12/23 08:23:52;;;;;;;;;;;;;;;-1.70;91.13;99800.03;3495186;28;19925;-56
2020/12/23 08:25:34;;;;;;;;;;;;;;;-1.70;91.27;99802.56;3498237;28;19925;-56
2020/12/23 08:27:15;;;;;;;;;;;;;;;-1.71;91.00;99801.69;3495789;28;19998;-56
2020/12/23 08:28:56;;;;;;;;;;;;;;;-1.71;90.96;99790.66;3496282;28;19931;-56
2020/12/23 08:30:40;;;;;;;;;;;;;;;-1.71;91.30;99801.69;3498141;28;20403;-57
2020/12/23 08:32:24;;;;;;;;;;;;;;;-1.71;91.11;99799.16;3494466;28;19991;-56
2020/12/23 08:34:06;;;;;;;;;;;;;;;-1.71;91.01;99788.09;3495238;28;19959;-56
2020/12/23 08:35:50;;;;;;;;;;;;;;;-1.72;90.91;99796.50;3490088;28;19936;-56
2020/12/23 08:37:48;;;;;;;;;;;;;;;-1.73;91.33;99788.00;3490247;28;19969;-55
2020/12/23 08:39:29;;;;;;;;;;;;;;;-1.73;91.25;99787.13;3495681;28;19968;-57
2020/12/23 08:41:10;;;;;;;;;;;;;;;-1.73;91.44;99790.53;3496207;28;20300;-56
2020/12/23 08:42:53;;;;;;;;;;;;;;;-1.72;91.60;99783.78;3494201;28;19994;-56
2020/12/23 08:44:34;;;;;;;;;;;;;;;-1.74;91.46;99786.22;3496978;28;19924;-56
2020/12/23 08:46:21;;;;;;;;;;;;;;;-1.73;91.63;99787.13;3494934;28;19949;-56
2020/12/23 08:48:07;;;;;;;;;;;;;;;-1.74;91.57;99782.81;3495380;28;20292;-56
2020/12/23 08:49:49;;;;;;;;;;;;;;;-1.75;91.44;99778.53;3493341;28;20355;-56